Terminal Aerodrome Forecast
Issued by NWS

Home | Current Version | Previous Version | Text Only | Print | Product List | Glossary On
Versions: 1 2 3 4 5 6 7 8 9 10 11 12 13 14 15 16 17 18 19 20 21 22 23 24 25 26 27 28 29 30 31 32 33 34 35
000
FTUS45 KGJT 231120
TAFEGE
TAF
KEGE 231120Z 2312/2412 00000KT P6SM SKC
     FM231900 27008KT P6SM FEW120
     FM232100 24012G20KT P6SM VCTS FEW110CB SCT200
     FM240300 11005KT P6SM VCSH SCT100 BKN150
     FM241000 00000KT P6SM FEW120 BKN200
      AMD LTD TO CLD VIS AND WIND TIL 231300=

USA.gov is the U.S. government's official web portal to all federal, state and local government web resources and services.